US Coast Guard Licensed

Weather in Page

Apr. 22, 2018 10:53 pm
Clear
moon68°
wind direction South5mph
WindGust: 0

Weather Details

 
Conditions:ClearCloudcover:Sky clear < 12,000AGL
Visibility:10mi / 16kmCloud Base:-- Not Reported --
Humidity:16%Cloud Type:-- Not Reported --
Barometer:Steady last 3hrsPrecipitation:0 last hr
 
Temperature:68° F.
20° C.
Dewpoint:21° F.
-6° C.
Wind Chill:69° F.
20° C.
Heat Index:-- Too Cool --
 
Wind Speed:5mph
5kts
Gusts:0mph
0kts
Direction:SouthHeading:180°
 
Pressure:29.98 in
761 mm
14.72479692 psi
1.035257368 kgf/cm²
1015 mb
Sea Lvl.
Pressure:
29.82 in
757 mm
14.64738762 psi
1.029815228 kgf/cm²
1009 mb



Weather Data reported from Page Airport via the National Weather Service.

Report Date: Apr. 22, 2018 10:53 pm
METAR:KPGA 230553Z AUTO 18005KT 10SM CLR 20/M06 A2998 RMK AO2 SLP099 T02001056 10256